»·PEaware :: N38G KSNA-KBUR

N38G :: KSNA-KBUR

FLIGHT INFORMATION

Flight Status: Arrived
Operator: Privately registered:
United States
More flights under this callsign
Pilot: Guilherme R. (33109)
Aircraft: SOCATA TBM-900
(TBM9)
More flights by this aircraft type
Origin: KSNA John Wayne-Orange Co
United States
Destination: KBUR Bob Hope-Burbank
United States
More flights between these airports :: More routes between these airports
Route: SLI V23 LAX LAX316 SILEX
File this flight plan on PilotEdge
Remarks: TEC route CSTP2
Altitude:
(Current/Filed)
6,000ft
Speed:
(Current/Filed)
200kts
Departed: 13-Jan-21 02:50 PM
Arrived: 13-Jan-21 03:15 PM
Distance/Time
Traveled:
40nm/0:25
Distance/Time
To Go:
Arrived

Flight Plot

Page will automatically refresh every two minutes.


Map Options




Map Legend


Flown Route
Filed Route
Departure Airport
Arrival Airport
Navaid (VOR, NDB)
Fix

Horizontal Profiles

Position Reports

Time Latitude Longitude Heading Altitude Ground
Speed
13-Jan-21 14:24 33.672350 -117.873168 251 55ft 0kts
13-Jan-21 14:25 33.672350 -117.873168 251 55ft 0kts
13-Jan-21 14:26 33.672350 -117.873168 251 55ft 0kts
13-Jan-21 14:27 33.672350 -117.873168 251 55ft 0kts
13-Jan-21 14:28 33.672350 -117.873168 251 55ft 0kts
13-Jan-21 14:29 33.672350 -117.873168 251 55ft 0kts
13-Jan-21 14:30 33.672350 -117.873168 251 55ft 0kts
13-Jan-21 14:31 33.672350 -117.873168 251 55ft 0kts
13-Jan-21 14:32 33.672350 -117.873168 251 55ft 0kts
13-Jan-21 14:33 33.672350 -117.873168 251 55ft 0kts
13-Jan-21 14:34 33.672350 -117.873168 251 55ft 0kts
13-Jan-21 14:35 33.672350 -117.873168 251 55ft 0kts
13-Jan-21 14:36 33.672350 -117.873168 251 55ft 0kts
13-Jan-21 14:37 33.672350 -117.873168 251 55ft 0kts
13-Jan-21 14:38 33.672208 -117.873243 177 55ft 4kts
13-Jan-21 14:39 33.672884 -117.872193 41 55ft 6kts
13-Jan-21 14:40 33.675720 -117.870342 31 55ft 16kts
13-Jan-21 14:41 33.680994 -117.867132 31 44ft 20kts
13-Jan-21 14:42 33.681117 -117.867042 37 44ft 0kts
13-Jan-21 14:43 33.681117 -117.867042 37 44ft 0kts
13-Jan-21 14:44 33.681117 -117.867042 37 44ft 0kts
13-Jan-21 14:45 33.681117 -117.867042 37 44ft 0kts
13-Jan-21 14:46 33.681168 -117.866990 48 44ft 8kts
13-Jan-21 14:47 33.681281 -117.866524 117 43ft 0kts
13-Jan-21 14:48 33.680969 -117.865913 138 43ft 24kts
13-Jan-21 14:49 33.657371 -117.883766 220 754ft 165kts
13-Jan-21 14:50 33.617383 -117.925086 222 1835ft 209kts
13-Jan-21 14:51 33.571714 -117.973849 222 2669ft 216kts
13-Jan-21 14:52 33.573767 -118.032187 309 4073ft 213kts
13-Jan-21 14:53 33.613895 -118.085749 313 5482ft 218kts
13-Jan-21 14:54 33.660351 -118.139651 315 5980ft 245kts
13-Jan-21 14:55 33.710995 -118.197433 315 5999ft 254kts
13-Jan-21 14:56 33.762461 -118.256190 315 5998ft 255kts
13-Jan-21 14:57 33.814151 -118.315186 315 5998ft 256kts
13-Jan-21 14:58 33.867631 -118.371644 319 5999ft 256kts
13-Jan-21 14:59 33.920822 -118.423937 321 5998ft 256kts
13-Jan-21 15:00 33.981064 -118.469934 328 6002ft 257kts
13-Jan-21 15:01 34.043521 -118.511647 333 6001ft 257kts
13-Jan-21 15:02 34.107780 -118.546414 333 5984ft 242kts
13-Jan-21 15:03 34.164344 -118.585804 326 6001ft 232kts
13-Jan-21 15:04 34.200220 -118.640328 257 5999ft 221kts
13-Jan-21 15:05 34.183799 -118.710026 253 5999ft 210kts
13-Jan-21 15:06 34.191382 -118.768441 351 5825ft 209kts
13-Jan-21 15:07 34.204009 -118.721625 120 4839ft 182kts
13-Jan-21 15:08 34.194643 -118.665633 100 4009ft 157kts
13-Jan-21 15:09 34.181709 -118.613438 109 4022ft 187kts
13-Jan-21 15:10 34.179215 -118.550944 73 3930ft 182kts
13-Jan-21 15:11 34.196151 -118.504338 77 3351ft 133kts
13-Jan-21 15:12 34.196098 -118.453021 90 2192ft 150kts
13-Jan-21 15:13 34.198352 -118.399187 94 1348ft 151kts
13-Jan-21 15:14 34.197847 -118.363495 95 718ft 40kts
13-Jan-21 15:15 34.198501 -118.360240 358 717ft 0kts
13-Jan-21 15:16 34.199236 -118.363639 356 719ft 10kts
13-Jan-21 15:17 34.199909 -118.363580 359 722ft 0kts

Navigation Log

Ident Type
Flight plan parsing failed, navigation log unavailable